Time;durP1;ratioP1;P1;durP2;ratioP2;P2;SDS_P1;SDS_P2;PMS_P1;PMS_P2;Temp;Humidity;BMP_temperature;BMP_pressure;BME280_temperature;BME280_humidity;BME280_pressure;Samples;Min_cycle;Max_cycle;Signal;HPM_P1;HPM_P2
2022/04/10 00:00:08;;;;;;;6.95;1.40;;;22.70;99.90;;;;;;5059569;28;20251;-79
2022/04/10 00:02:39;;;;;;;6.15;1.20;;;22.80;99.90;;;;;;5055413;28;20189;-80
2022/04/10 00:05:10;;;;;;;4.90;0.80;;;22.90;99.90;;;;;;5062542;28;20189;-80
2022/04/10 00:07:41;;;;;;;6.63;1.10;;;23.00;99.90;;;;;;5054086;28;21014;-75
2022/04/10 00:10:13;;;;;;;6.78;1.00;;;23.00;99.90;;;;;;5055778;28;20195;-83
2022/04/10 00:12:44;;;;;;;3.47;0.88;;;23.10;99.90;;;;;;5064936;28;20194;-79
2022/04/10 00:15:15;;;;;;;5.13;1.00;;;23.10;99.90;;;;;;5069063;28;20226;-77
2022/04/10 00:17:45;;;;;;;8.20;4.22;;;22.90;99.90;;;;;;5062178;28;20201;-78
2022/04/10 00:20:16;;;;;;;6.90;2.80;;;22.90;99.90;;;;;;5056109;28;20189;-78
2022/04/10 00:22:48;;;;;;;6.80;1.70;;;22.80;99.90;;;;;;5061956;28;20185;-81
2022/04/10 00:25:22;;;;;;;6.68;1.17;;;22.70;99.90;;;;;;5058097;28;20185;-77
2022/04/10 00:27:53;;;;;;;5.07;1.30;;;22.60;99.90;;;;;;5053470;28;20212;-74
2022/04/10 00:30:23;;;;;;;4.45;1.00;;;22.50;99.90;;;;;;5054588;28;20193;-75
2022/04/10 00:32:54;;;;;;;3.42;1.10;;;22.40;99.90;;;;;;5055138;28;20182;-77
2022/04/10 00:35:25;;;;;;;4.43;1.02;;;22.20;99.90;;;;;;5056252;28;20283;-80
2022/04/10 00:37:55;;;;;;;8.82;1.10;;;22.20;99.90;;;;;;5066788;28;20189;-80
2022/04/10 00:40:28;;;;;;;5.10;1.02;;;22.10;99.90;;;;;;5056809;28;20190;-78
2022/04/10 00:42:58;;;;;;;7.40;1.38;;;22.00;99.90;;;;;;5061216;28;20592;-78
2022/04/10 00:45:29;;;;;;;4.88;1.13;;;22.00;99.90;;;;;;5053608;28;20243;-78
2022/04/10 00:48:00;;;;;;;4.45;1.08;;;21.90;99.90;;;;;;5065154;28;20229;-79
2022/04/10 00:50:30;;;;;;;3.17;0.90;;;21.90;99.90;;;;;;5070736;28;20212;-78
2022/04/10 00:53:01;;;;;;;5.45;1.05;;;21.80;99.90;;;;;;5064652;28;20182;-79
2022/04/10 00:55:34;;;;;;;6.63;1.30;;;21.80;99.90;;;;;;5062613;28;20189;-80
2022/04/10 00:58:04;;;;;;;2.90;1.10;;;21.90;99.90;;;;;;5053629;28;20186;-80
2022/04/10 01:00:35;;;;;;;7.00;1.00;;;22.00;99.90;;;;;;5059947;28;20197;-80
2022/04/10 01:03:06;;;;;;;6.80;1.13;;;22.00;99.90;;;;;;5071072;28;20222;-76
2022/04/10 01:05:37;;;;;;;5.53;1.60;;;22.10;99.90;;;;;;5062030;28;20186;-81
2022/04/10 01:08:08;;;;;;;4.90;1.00;;;22.10;99.90;;;;;;5061863;28;20632;-75
2022/04/10 01:10:40;;;;;;;4.22;1.30;;;22.20;99.90;;;;;;5072007;28;20246;-78
2022/04/10 01:13:11;;;;;;;3.88;1.10;;;22.30;99.90;;;;;;5061807;28;20197;-80
2022/04/10 01:15:42;;;;;;;6.13;1.10;;;22.30;99.90;;;;;;5059024;28;20193;-76
2022/04/10 01:18:13;;;;;;;4.97;1.10;;;22.40;99.90;;;;;;5068914;28;20204;-76
2022/04/10 01:20:44;;;;;;;5.82;1.30;;;22.40;99.90;;;;;;5065491;28;20190;-75
2022/04/10 01:23:17;;;;;;;7.70;1.30;;;22.70;99.90;;;;;;5060839;28;20199;-75
2022/04/10 01:25:47;;;;;;;4.20;0.90;;;22.90;99.90;;;;;;5069286;28;20185;-79
2022/04/10 01:28:18;;;;;;;5.32;1.02;;;23.00;99.90;;;;;;5068610;28;20189;-77
2022/04/10 01:30:48;;;;;;;4.95;1.30;;;23.10;99.90;;;;;;5067406;28;20194;-80
2022/04/10 01:33:19;;;;;;;4.65;1.02;;;23.20;99.90;;;;;;5057441;28;20226;-79
2022/04/10 01:35:50;;;;;;;8.02;1.20;;;23.20;99.90;;;;;;5056740;28;20196;-76
2022/04/10 01:38:23;;;;;;;2.90;1.10;;;23.30;99.90;;;;;;5058713;28;20280;-77
2022/04/10 01:40:54;;;;;;;5.65;1.15;;;23.40;99.90;;;;;;5064762;28;20632;-80
2022/04/10 01:43:25;;;;;;;5.35;1.17;;;23.60;99.90;;;;;;5063493;28;20633;-77
2022/04/10 01:45:55;;;;;;;6.18;1.23;;;23.70;99.90;;;;;;5066021;28;20193;-81
2022/04/10 01:48:26;;;;;;;5.32;1.40;;;23.90;99.90;;;;;;5066889;28;20339;-81
2022/04/10 01:50:56;;;;;;;6.03;1.20;;;23.90;99.90;;;;;;5063832;28;20189;-77
2022/04/10 01:53:29;;;;;;;7.15;1.13;;;24.00;99.90;;;;;;5060841;28;20602;-80
2022/04/10 01:56:00;;;;;;;6.53;1.38;;;24.10;99.90;;;;;;5062688;28;20628;-79
2022/04/10 01:58:31;;;;;;;6.72;1.05;;;24.00;99.90;;;;;;5062839;28;20196;-73
2022/04/10 02:01:05;;;;;;;3.40;0.80;;;24.00;99.90;;;;;;5058971;28;20185;-77
2022/04/10 02:03:36;;;;;;;5.13;1.13;;;24.00;99.90;;;;;;5060466;28;20234;-77
2022/04/10 02:06:07;;;;;;;4.25;0.93;;;23.90;99.90;;;;;;5054636;28;20201;-80
2022/04/10 02:08:41;;;;;;;3.58;1.08;;;24.10;99.90;;;;;;5067229;28;20185;-79
2022/04/10 02:11:16;;;;;;;7.20;1.23;;;24.30;99.90;;;;;;5070621;28;20192;-79
2022/04/10 02:13:48;;;;;;;5.10;1.00;;;24.30;99.90;;;;;;5064629;28;20188;-80
2022/04/10 02:16:21;;;;;;;4.88;1.10;;;24.40;99.90;;;;;;5061364;28;20204;-79
2022/04/10 02:18:51;;;;;;;6.03;1.20;;;24.40;99.90;;;;;;5064494;28;20189;-81
2022/04/10 02:21:22;;;;;;;2.85;0.90;;;24.60;99.90;;;;;;5070864;28;20208;-79
2022/04/10 02:23:54;;;;;;;6.38;1.13;;;24.60;99.90;;;;;;5070864;28;20181;-77
2022/04/10 02:26:25;;;;;;;4.45;1.05;;;24.60;99.90;;;;;;5068831;28;20243;-78
2022/04/10 02:28:56;;;;;;;5.03;0.88;;;24.50;99.90;;;;;;5061907;28;20628;-72
2022/04/10 02:31:26;;;;;;;5.75;1.23;;;24.30;99.90;;;;;;5071408;28;20189;-74
2022/04/10 02:33:57;;;;;;;7.47;1.20;;;24.30;99.90;;;;;;5067140;28;20193;-79
2022/04/10 02:36:27;;;;;;;7.43;1.10;;;24.30;99.90;;;;;;5064310;28;20201;-76
2022/04/10 02:39:03;;;;;;;5.07;1.02;;;24.40;99.90;;;;;;5064958;28;20185;-75
2022/04/10 02:41:33;;;;;;;5.43;1.27;;;24.40;99.90;;;;;;5067621;28;20242;-79
2022/04/10 02:44:04;;;;;;;7.70;2.75;;;24.40;99.90;;;;;;5055705;28;20189;-80
2022/04/10 02:46:35;;;;;;;3.70;1.00;;;24.50;99.90;;;;;;5063043;28;20209;-80
2022/04/10 02:49:05;;;;;;;4.43;1.15;;;24.60;99.90;;;;;;5065741;28;20218;-81
2022/04/10 02:51:36;;;;;;;6.97;1.20;;;24.70;99.90;;;;;;5063472;28;20212;-78
2022/04/10 02:54:08;;;;;;;7.93;1.05;;;24.70;99.90;;;;;;5067793;28;20186;-75
2022/04/10 02:56:39;;;;;;;7.95;1.15;;;24.50;99.90;;;;;;5062662;28;20197;-75
2022/04/10 02:59:10;;;;;;;7.38;1.00;;;24.60;99.90;;;;;;5064420;28;20264;-77
2022/04/10 03:01:40;;;;;;;8.60;1.25;;;24.60;99.90;;;;;;5067179;28;20193;-78
2022/04/10 03:04:11;;;;;;;4.13;0.95;;;24.60;99.90;;;;;;5067128;28;20242;-76
2022/04/10 03:06:42;;;;;;;6.10;1.13;;;24.30;99.90;;;;;;5062131;28;20768;-77
2022/04/10 03:09:14;;;;;;;4.38;1.00;;;24.10;99.90;;;;;;5066888;28;20201;-75
2022/04/10 03:11:45;;;;;;;5.10;0.88;;;24.00;99.90;;;;;;5063689;28;20191;-81
2022/04/10 03:14:15;;;;;;;5.35;0.90;;;23.90;99.90;;;;;;5069445;28;20193;-80
2022/04/10 03:16:46;;;;;;;5.63;1.27;;;23.80;99.90;;;;;;5067159;28;20603;-78
2022/04/10 03:19:17;;;;;;;4.43;1.20;;;23.80;99.90;;;;;;5067982;28;20562;-79
2022/04/10 03:21:47;;;;;;;6.78;1.02;;;23.60;99.90;;;;;;5065452;28;20641;-80
2022/04/10 03:24:20;;;;;;;7.57;1.30;;;23.60;99.90;;;;;;5068924;28;20242;-82
2022/04/10 03:26:50;;;;;;;11.25;1.38;;;23.50;99.90;;;;;;5067442;28;20219;-79
2022/04/10 03:29:21;;;;;;;6.25;1.30;;;23.50;99.90;;;;;;5072066;28;20193;-81
2022/04/10 03:31:52;;;;;;;5.97;1.10;;;23.50;99.90;;;;;;5068239;28;20319;-83
2022/04/10 03:34:22;;;;;;;6.10;0.90;;;23.50;99.90;;;;;;5068770;28;20189;-76
2022/04/10 03:36:53;;;;;;;4.75;1.25;;;23.40;99.90;;;;;;5067057;28;20190;-80
2022/04/10 03:39:25;;;;;;;5.38;1.02;;;23.30;99.90;;;;;;5070049;28;20181;-78
2022/04/10 03:41:59;;;;;;;3.88;0.88;;;23.30;99.90;;;;;;5069212;28;20248;-77
2022/04/10 03:44:29;;;;;;;4.90;1.13;;;23.20;99.90;;;;;;5062125;28;20192;-76
2022/04/10 03:47:00;;;;;;;3.97;1.20;;;23.20;99.90;;;;;;5069912;28;20224;-79
2022/04/10 03:49:31;;;;;;;4.20;0.98;;;23.10;99.90;;;;;;5067375;28;20278;-78
2022/04/10 03:52:01;;;;;;;9.45;2.33;;;23.10;99.90;;;;;;5066747;28;20642;-73
2022/04/10 03:54:34;;;;;;;6.60;1.08;;;23.20;99.90;;;;;;5070037;28;20189;-78
2022/04/10 03:57:04;;;;;;;6.03;0.90;;;23.20;99.90;;;;;;5063597;28;20242;-81
2022/04/10 03:59:35;;;;;;;4.25;0.88;;;23.20;99.90;;;;;;5065068;28;20649;-75
2022/04/10 04:02:05;;;;;;;5.03;1.05;;;23.20;99.90;;;;;;5066834;28;20185;-80
2022/04/10 04:04:38;;;;;;;4.25;0.90;;;23.20;99.90;;;;;;5068917;28;20180;-76
2022/04/10 04:07:09;;;;;;;4.32;1.00;;;23.30;99.90;;;;;;5070747;28;20209;-80
2022/04/10 04:09:41;;;;;;;7.72;1.00;;;23.30;99.90;;;;;;5069834;28;20189;-78
2022/04/10 04:12:13;;;;;;;4.00;0.70;;;23.30;99.90;;;;;;5071462;28;20276;-77
2022/04/10 04:14:43;;;;;;;5.78;1.00;;;23.30;99.90;;;;;;5062020;28;20189;-77
2022/04/10 04:17:14;;;;;;;7.90;1.00;;;23.30;99.90;;;;;;5069131;28;20197;-76
2022/04/10 04:19:46;;;;;;;4.70;1.00;;;23.40;99.90;;;;;;5068058;28;20185;-81
2022/04/10 04:22:16;;;;;;;5.30;0.98;;;23.60;99.90;;;;;;5065640;28;20551;-79
2022/04/10 04:24:49;;;;;;;9.07;1.17;;;23.80;99.90;;;;;;5065306;28;20193;-78
2022/04/10 04:27:19;;;;;;;4.60;1.17;;;24.00;99.90;;;;;;5068529;28;20642;-76
2022/04/10 04:29:50;;;;;;;4.60;0.93;;;24.10;99.90;;;;;;5068103;28;20243;-78
2022/04/10 04:32:21;;;;;;;5.10;1.10;;;24.20;99.90;;;;;;5070389;28;20181;-80
2022/04/10 04:34:51;;;;;;;4.53;1.08;;;24.10;99.90;;;;;;5068273;28;20527;-77
2022/04/10 04:37:22;;;;;;;5.25;0.98;;;24.00;99.90;;;;;;5062866;28;20204;-78
2022/04/10 04:39:55;;;;;;;4.45;1.10;;;23.90;99.90;;;;;;5069475;28;20197;-79
2022/04/10 04:42:25;;;;;;;4.25;0.90;;;23.80;99.90;;;;;;5070942;28;20192;-76
2022/04/10 04:44:56;;;;;;;5.78;1.08;;;23.80;99.90;;;;;;5071522;28;20223;-75
2022/04/10 04:47:27;;;;;;;2.47;1.15;;;23.80;99.90;;;;;;5069731;28;20263;-76
2022/04/10 04:49:59;;;;;;;6.68;1.10;;;23.90;99.90;;;;;;5063690;28;20197;-79
2022/04/10 04:52:29;;;;;;;4.60;1.02;;;23.80;99.90;;;;;;5068749;28;20189;-77
2022/04/10 04:55:02;;;;;;;3.80;0.80;;;23.90;99.90;;;;;;5072270;28;20185;-73
2022/04/10 04:57:34;;;;;;;3.83;0.85;;;23.90;99.90;;;;;;5070321;28;20200;-78
2022/04/10 05:00:06;;;;;;;4.13;1.25;;;23.80;99.90;;;;;;5062240;28;20190;-76
2022/04/10 05:02:36;;;;;;;3.08;0.85;;;23.80;99.90;;;;;;5067698;28;20200;-80
2022/04/10 05:05:09;;;;;;;8.95;1.17;;;23.80;99.90;;;;;;5069689;28;20590;-75
2022/04/10 05:07:39;;;;;;;5.78;1.05;;;23.80;99.90;;;;;;5065650;28;20247;-71
2022/04/10 05:10:13;;;;;;;7.50;1.35;;;23.80;99.90;;;;;;5062428;28;20656;-76
2022/04/10 05:12:44;;;;;;;4.32;1.10;;;23.80;99.90;;;;;;5061041;28;20189;-77
2022/04/10 05:15:14;;;;;;;8.18;1.40;;;23.70;99.90;;;;;;5063816;28;20197;-72
2022/04/10 05:17:45;;;;;;;3.47;0.80;;;23.70;99.90;;;;;;5063982;28;20190;-81
2022/04/10 05:20:16;;;;;;;5.10;0.88;;;23.70;99.90;;;;;;5067301;28;20189;-79
2022/04/10 05:22:47;;;;;;;4.68;0.80;;;23.70;99.90;;;;;;5057891;28;20212;-80
2022/04/10 05:25:19;;;;;;;3.90;0.80;;;23.60;99.90;;;;;;5065214;28;20229;-78
2022/04/10 05:27:50;;;;;;;4.65;0.85;;;23.60;99.90;;;;;;5065479;28;20206;-82
2022/04/10 05:30:21;;;;;;;7.20;0.93;;;23.60;99.90;;;;;;5066172;28;20197;-80
2022/04/10 05:32:51;;;;;;;3.53;0.57;;;23.60;99.90;;;;;;5065620;28;20193;-82
2022/04/10 05:35:22;;;;;;;7.85;0.95;;;23.60;99.90;;;;;;5063407;28;20197;-81
2022/04/10 05:37:53;;;;;;;5.35;1.00;;;23.60;99.90;;;;;;5057964;28;20220;-81
2022/04/10 05:40:25;;;;;;;4.45;0.80;;;23.60;99.90;;;;;;5062964;28;20242;-81
2022/04/10 05:42:56;;;;;;;4.18;0.65;;;23.60;99.90;;;;;;5067246;28;20242;-83
2022/04/10 05:45:27;;;;;;;4.65;1.00;;;23.60;99.90;;;;;;5058420;28;20189;-83
2022/04/10 05:47:57;;;;;;;5.07;0.80;;;23.50;99.90;;;;;;5062646;28;20240;-81
2022/04/10 05:50:28;;;;;;;6.22;1.00;;;23.50;99.90;;;;;;5069172;28;20193;-82
2022/04/10 05:52:59;;;;;;;3.95;1.10;;;23.50;99.90;;;;;;5061873;28;20193;-82
2022/04/10 05:55:31;;;;;;;5.00;1.00;;;23.50;99.90;;;;;;5054129;28;20197;-80
2022/04/10 05:58:03;;;;;;;5.90;0.90;;;23.50;99.90;;;;;;5052944;28;20189;-80
2022/04/10 06:00:33;;;;;;;5.00;0.75;;;23.40;99.90;;;;;;5060965;28;20221;-80
2022/04/10 06:03:05;;;;;;;7.60;0.93;;;23.40;99.90;;;;;;5053223;28;20185;-80
2022/04/10 06:05:36;;;;;;;5.63;1.00;;;23.30;99.90;;;;;;5065534;28;20243;-79
2022/04/10 06:08:07;;;;;;;5.65;0.88;;;23.30;99.90;;;;;;5067636;28;20262;-78
2022/04/10 06:10:40;;;;;;;4.28;0.88;;;23.30;99.90;;;;;;5060413;28;20181;-80
2022/04/10 06:13:11;;;;;;;5.75;0.88;;;23.20;99.90;;;;;;5069770;28;20185;-79
2022/04/10 06:15:42;;;;;;;5.85;0.80;;;23.20;99.90;;;;;;5060598;28;20188;-82
2022/04/10 06:18:13;;;;;;;6.03;1.02;;;23.20;99.90;;;;;;5061387;28;20198;-81
2022/04/10 06:20:43;;;;;;;9.02;1.17;;;23.20;99.90;;;;;;5060699;28;20192;-81
2022/04/10 06:23:15;;;;;;;3.88;0.90;;;23.10;99.90;;;;;;5059588;28;20200;-82
2022/04/10 06:25:47;;;;;;;6.35;0.95;;;23.10;99.90;;;;;;5058207;28;20247;-80
2022/04/10 06:28:18;;;;;;;5.68;0.90;;;23.00;99.90;;;;;;5056460;28;20237;-81
2022/04/10 06:30:48;;;;;;;3.42;0.85;;;23.00;99.90;;;;;;5056834;28;20208;-81
2022/04/10 06:33:19;;;;;;;3.40;0.98;;;23.00;99.90;;;;;;5065144;28;20235;-81
2022/04/10 06:35:50;;;;;;;7.00;1.00;;;23.00;99.90;;;;;;5056070;28;20633;-82
2022/04/10 06:38:20;;;;;;;4.60;0.90;;;22.90;99.90;;;;;;5060030;28;20213;-79
2022/04/10 06:40:53;;;;;;;5.30;0.75;;;22.90;99.90;;;;;;5059174;28;20628;-81
2022/04/10 06:43:23;;;;;;;4.35;0.85;;;22.90;99.90;;;;;;5056159;28;20194;-82
2022/04/10 06:45:54;;;;;;;4.85;0.95;;;22.80;99.90;;;;;;5056725;28;20200;-81
2022/04/10 06:48:25;;;;;;;5.68;0.93;;;22.80;99.90;;;;;;5069832;28;20722;-82
2022/04/10 06:50:55;;;;;;;6.70;0.85;;;22.80;99.90;;;;;;5064581;28;20185;-82
2022/04/10 06:53:26;;;;;;;5.07;1.08;;;22.80;99.90;;;;;;5059175;28;20659;-80
2022/04/10 06:55:58;;;;;;;6.05;1.00;;;22.70;99.90;;;;;;5061331;28;20186;-79
2022/04/10 06:58:29;;;;;;;5.57;1.02;;;22.70;99.90;;;;;;5056051;28;20186;-72
2022/04/10 07:01:00;;;;;;;5.18;0.88;;;22.60;99.90;;;;;;5063114;28;20186;-70
2022/04/10 07:03:30;;;;;;;6.20;1.10;;;22.60;99.90;;;;;;5062310;28;20185;-75
2022/04/10 07:06:02;;;;;;;7.05;1.10;;;22.50;99.90;;;;;;5063656;28;20559;-76
2022/04/10 07:08:33;;;;;;;8.32;1.45;;;22.50;99.90;;;;;;5062404;28;20229;-74
2022/04/10 07:11:06;;;;;;;6.63;1.15;;;22.50;99.90;;;;;;5062955;28;20199;-73
2022/04/10 07:13:36;;;;;;;6.90;1.15;;;22.40;99.90;;;;;;5058056;28;20262;-80
2022/04/10 07:16:07;;;;;;;7.22;1.30;;;22.30;99.90;;;;;;5066180;28;20300;-77
2022/04/10 07:18:38;;;;;;;5.50;1.15;;;22.20;99.90;;;;;;5056311;28;20574;-77
2022/04/10 07:21:08;;;;;;;5.32;0.82;;;22.20;99.90;;;;;;5055638;28;20186;-78
2022/04/10 07:23:45;;;;;;;6.55;1.30;;;22.10;99.90;;;;;;5058682;28;20194;-79
2022/04/10 07:26:18;;;;;;;2.80;0.85;;;22.00;99.90;;;;;;5055620;28;20192;-80
2022/04/10 07:28:48;;;;;;;7.00;1.08;;;22.00;99.90;;;;;;5062520;28;20213;-78
2022/04/10 07:31:19;;;;;;;4.85;1.00;;;21.90;99.90;;;;;;5057363;28;20198;-81
2022/04/10 07:33:50;;;;;;;5.53;1.05;;;21.80;99.90;;;;;;5063679;28;20246;-75
2022/04/10 07:36:20;;;;;;;5.93;0.93;;;21.80;99.90;;;;;;5067395;28;20263;-81
2022/04/10 07:38:51;;;;;;;4.70;0.95;;;21.80;99.90;;;;;;5055013;28;20231;-76
2022/04/10 07:41:23;;;;;;;7.43;1.40;;;21.70;99.90;;;;;;5061578;28;20193;-81
2022/04/10 07:43:54;;;;;;;7.53;1.10;;;21.70;99.90;;;;;;5056720;28;20197;-80
2022/04/10 07:49:11;;;;;;;4.10;1.00;;;21.60;99.90;;;;;;5072153;28;20241;-80
2022/04/10 07:51:42;;;;;;;6.93;1.40;;;21.50;99.90;;;;;;5060525;28;20198;-81
2022/04/10 07:54:13;;;;;;;6.63;1.30;;;21.50;99.90;;;;;;5065115;28;20206;-81
2022/04/10 07:56:46;;;;;;;5.00;1.00;;;21.40;99.90;;;;;;5060021;28;20235;-81
2022/04/10 07:59:17;;;;;;;6.25;1.38;;;21.40;99.90;;;;;;5058361;28;20198;-80
2022/04/10 08:01:48;;;;;;;11.02;1.60;;;21.30;99.90;;;;;;5063525;28;20224;-80
2022/04/10 08:04:18;;;;;;;6.78;1.45;;;21.30;99.90;;;;;;5067759;28;20549;-81
2022/04/10 08:06:49;;;;;;;4.47;1.30;;;21.20;99.90;;;;;;5067690;28;20193;-74
2022/04/10 08:09:20;;;;;;;3.40;1.42;;;21.20;99.90;;;;;;5064873;28;20266;-78
2022/04/10 08:11:53;;;;;;;7.53;1.65;;;21.10;99.90;;;;;;5065435;28;20216;-77
2022/04/10 08:14:24;;;;;;;6.13;1.80;;;21.10;99.90;;;;;;5061020;28;20204;-74
2022/04/10 08:16:54;;;;;;;7.57;1.60;;;21.10;99.90;;;;;;5061995;28;20632;-80
2022/04/10 08:19:25;;;;;;;6.47;1.48;;;21.00;99.90;;;;;;5058145;28;20186;-76
2022/04/10 08:21:55;;;;;;;6.93;1.70;;;21.00;99.90;;;;;;5065429;28;20702;-76
2022/04/10 08:24:26;;;;;;;8.48;1.55;;;20.90;99.90;;;;;;5056585;28;20193;-76
2022/04/10 08:26:59;;;;;;;5.40;1.75;;;20.90;99.90;;;;;;5056325;28;20196;-72
2022/04/10 08:29:30;;;;;;;6.28;1.35;;;20.90;99.90;;;;;;5059143;28;20209;-78
2022/04/10 08:32:00;;;;;;;8.25;1.52;;;20.80;99.90;;;;;;5057588;28;20186;-77
2022/04/10 08:34:31;;;;;;;7.55;1.63;;;20.80;99.90;;;;;;5058063;28;20205;-77
2022/04/10 08:37:05;;;;;;;4.88;1.50;;;20.70;99.90;;;;;;5062864;28;20193;-75
2022/04/10 08:39:36;;;;;;;7.15;1.30;;;20.70;99.90;;;;;;5064751;28;20202;-74
2022/04/10 08:42:10;;;;;;;4.30;1.10;;;20.70;99.90;;;;;;5069707;28;20653;-77
2022/04/10 08:44:41;;;;;;;9.07;1.70;;;20.70;99.90;;;;;;5060479;28;20197;-82
2022/04/10 08:47:11;;;;;;;6.95;1.50;;;20.70;99.90;;;;;;5065590;28;20221;-76
2022/04/10 08:49:42;;;;;;;6.15;1.30;;;20.60;99.90;;;;;;5065005;28;20237;-81
2022/04/10 08:52:13;;;;;;;8.13;1.58;;;20.60;99.90;;;;;;5064076;28;20201;-80
2022/04/10 08:54:44;;;;;;;6.82;1.60;;;20.60;99.90;;;;;;5067037;28;20200;-74
2022/04/10 08:57:17;;;;;;;7.55;1.50;;;20.60;99.90;;;;;;5068914;28;20185;-80
2022/04/10 08:59:48;;;;;;;3.85;1.48;;;20.60;99.90;;;;;;5059557;28;20239;-80
2022/04/10 09:02:18;;;;;;;5.88;1.48;;;20.50;99.90;;;;;;5055414;28;20235;-77
2022/04/10 09:04:49;;;;;;;9.38;2.05;;;20.50;99.90;;;;;;5065146;28;20190;-77
2022/04/10 09:07:20;;;;;;;5.05;2.05;;;20.40;99.90;;;;;;5055270;28;20190;-76
2022/04/10 09:09:56;;;;;;;3.78;1.90;;;20.40;99.90;;;;;;5066593;28;20213;-78
2022/04/10 09:12:29;;;;;;;12.82;2.00;;;20.40;99.90;;;;;;5059510;28;20637;-78
2022/04/10 09:15:07;;;;;;;10.30;2.17;;;20.30;99.90;;;;;;5063022;28;20189;-79
2022/04/10 09:17:37;;;;;;;8.82;1.80;;;20.30;99.90;;;;;;5058748;28;20189;-76
2022/04/10 09:20:09;;;;;;;6.18;1.67;;;20.30;99.90;;;;;;5053523;28;20197;-82
2022/04/10 09:22:39;;;;;;;4.03;1.45;;;20.20;99.90;;;;;;5054477;28;20231;-75
2022/04/10 09:25:14;;;;;;;6.75;1.63;;;20.20;99.90;;;;;;5066901;28;20193;-81
2022/04/10 09:27:47;;;;;;;5.50;1.73;;;20.20;99.90;;;;;;5053982;28;20185;-74
2022/04/10 09:30:18;;;;;;;8.35;1.98;;;20.20;99.90;;;;;;5053433;28;20236;-79
2022/04/10 09:32:51;;;;;;;6.78;2.15;;;20.20;99.90;;;;;;5054767;28;20197;-76
2022/04/10 09:35:23;;;;;;;7.00;2.00;;;20.20;99.90;;;;;;5060511;28;20193;-77
2022/04/10 09:37:54;;;;;;;7.25;2.15;;;20.10;99.90;;;;;;5054775;28;20193;-79
2022/04/10 09:40:29;;;;;;;8.85;2.28;;;20.10;99.90;;;;;;5053814;28;20198;-75
2022/04/10 09:43:07;;;;;;;6.00;2.10;;;20.10;99.90;;;;;;5053174;28;20562;-76
2022/04/10 09:45:39;;;;;;;5.00;1.80;;;20.10;99.90;;;;;;5053210;28;20197;-79
2022/04/10 09:48:30;;;;;;;6.75;1.77;;;20.10;99.90;;;;;;5053328;28;20309;-81
2022/04/10 09:51:02;;;;;;;5.45;1.67;;;20.10;99.90;;;;;;5052293;28;20276;-78
2022/04/10 09:53:34;;;;;;;5.35;2.25;;;20.10;99.90;;;;;;5063205;28;20276;-80
2022/04/10 09:56:05;;;;;;;11.15;3.00;;;20.10;99.90;;;;;;5067615;28;20235;-78
2022/04/10 09:58:38;;;;;;;9.18;2.60;;;20.10;99.90;;;;;;5060475;28;20259;-75
2022/04/10 10:01:12;;;;;;;6.63;3.40;;;20.10;99.90;;;;;;5063754;28;20193;-81
2022/04/10 10:03:42;;;;;;;9.23;3.63;;;20.00;99.90;;;;;;5068370;28;20181;-72
2022/04/10 10:06:14;;;;;;;8.45;2.53;;;20.00;99.90;;;;;;5062217;28;20197;-77
2022/04/10 10:08:46;;;;;;;8.25;2.50;;;20.00;99.90;;;;;;5061655;28;20199;-72
2022/04/10 10:11:17;;;;;;;10.40;2.33;;;19.90;99.90;;;;;;5073440;28;20189;-81
2022/04/10 10:13:52;;;;;;;6.32;2.25;;;19.90;99.90;;;;;;5056654;28;20203;-70
2022/04/10 10:16:22;;;;;;;5.90;2.15;;;19.90;99.90;;;;;;5057800;28;20247;-79
2022/04/10 10:18:54;;;;;;;10.07;1.98;;;19.90;99.90;;;;;;5080152;28;20242;-79
2022/04/10 10:21:24;;;;;;;7.20;2.58;;;19.90;99.90;;;;;;5064572;28;20202;-78
2022/04/10 10:23:55;;;;;;;5.97;2.15;;;19.90;99.90;;;;;;5060092;28;20243;-82
2022/04/10 10:26:43;;;;;;;7.10;2.45;;;19.80;99.90;;;;;;5065275;28;20238;-80
2022/04/10 10:29:39;;;;;;;6.70;2.30;;;19.80;99.90;;;;;;5071112;28;20300;-79
2022/04/10 10:32:15;;;;;;;8.43;2.22;;;19.80;99.90;;;;;;5056411;28;20251;-79
2022/04/10 10:34:46;;;;;;;5.47;1.90;;;19.70;99.90;;;;;;5064299;28;20189;-77
2022/04/10 10:37:17;;;;;;;5.72;2.00;;;19.70;99.90;;;;;;5057525;28;20186;-79
2022/04/10 10:39:53;;;;;;;8.63;2.08;;;19.70;99.90;;;;;;5064131;28;20325;-79
2022/04/10 10:42:26;;;;;;;8.57;2.30;;;19.70;99.90;;;;;;5060893;28;20189;-81
2022/04/10 10:44:58;;;;;;;9.57;2.20;;;19.70;99.90;;;;;;5061704;28;20202;-82
2022/04/10 10:47:35;;;;;;;5.88;2.30;;;19.70;99.90;;;;;;5070499;28;20628;-81
2022/04/10 10:50:29;;;;;;;6.55;2.38;;;19.60;99.90;;;;;;5049719;28;20239;-79
2022/04/10 10:53:09;;;;;;;7.68;2.33;;;19.60;99.90;;;;;;5045004;28;20198;-82
2022/04/10 10:55:47;;;;;;;6.40;2.28;;;19.70;99.90;;;;;;5045731;28;20200;-81
2022/04/10 10:58:32;;;;;;;4.90;2.15;;;19.70;99.90;;;;;;5045210;28;20205;-76
2022/04/10 11:01:06;;;;;;;5.40;2.08;;;19.60;99.90;;;;;;5042119;28;20206;-76
2022/04/10 11:04:03;;;;;;;8.80;2.40;;;19.60;99.90;;;;;;5041427;28;20247;-81
2022/04/10 11:06:44;;;;;;;7.60;2.30;;;19.60;99.90;;;;;;5045667;28;20201;-81
2022/04/10 11:09:25;;;;;;;10.48;2.40;;;19.60;99.90;;;;;;5042960;28;20252;-82
2022/04/10 11:11:58;;;;;;;6.68;2.10;;;19.50;99.90;;;;;;5046333;28;20665;-76
2022/04/10 11:14:39;;;;;;;6.55;2.40;;;19.50;99.90;;;;;;5042418;28;20194;-76
2022/04/10 11:17:18;;;;;;;9.80;2.58;;;19.50;99.90;;;;;;5050962;28;20641;-80
2022/04/10 11:19:50;;;;;;;5.63;2.50;;;19.50;99.90;;;;;;5045645;28;20231;-76
2022/04/10 11:22:25;;;;;;;11.07;2.65;;;19.50;99.90;;;;;;5039347;28;20195;-79
2022/04/10 11:24:59;;;;;;;7.20;2.75;;;19.40;99.90;;;;;;5041313;28;20220;-78
2022/04/10 11:27:47;;;;;;;8.02;2.35;;;19.50;99.90;;;;;;5045608;28;20195;-77
2022/04/10 11:30:22;;;;;;;7.57;2.30;;;19.40;99.90;;;;;;5045161;28;20286;-77
2022/04/10 11:32:56;;;;;;;9.05;2.65;;;19.40;99.90;;;;;;5045013;28;20656;-78
2022/04/10 11:35:29;;;;;;;9.07;2.72;;;19.50;99.90;;;;;;5043690;28;20206;-70
2022/04/10 11:38:01;;;;;;;9.40;2.47;;;19.40;99.90;;;;;;5044804;28;20202;-76
2022/04/10 11:40:33;;;;;;;6.32;1.98;;;19.40;99.90;;;;;;5042189;28;20206;-75
2022/04/10 11:43:07;;;;;;;8.63;2.28;;;19.40;99.90;;;;;;5044321;28;20202;-78
2022/04/10 11:45:38;;;;;;;5.53;2.17;;;19.40;99.90;;;;;;5041758;28;20563;-81
2022/04/10 11:48:11;;;;;;;8.48;2.15;;;19.40;99.90;;;;;;5050716;28;20240;-78
2022/04/10 11:50:42;;;;;;;6.70;2.35;;;19.40;99.90;;;;;;5068056;28;20233;-74
2022/04/10 11:53:14;;;;;;;6.25;2.40;;;19.40;99.90;;;;;;5070445;28;20202;-82
2022/04/10 11:55:46;;;;;;;6.30;2.20;;;19.40;99.90;;;;;;5065169;28;20251;-81
2022/04/10 11:58:18;;;;;;;7.32;2.63;;;19.40;99.90;;;;;;5069140;28;20204;-81
2022/04/10 12:00:51;;;;;;;10.55;2.42;;;19.30;99.90;;;;;;5061988;28;20193;-80
2022/04/10 12:03:25;;;;;;;6.88;2.55;;;19.30;99.90;;;;;;5064886;28;20181;-82
2022/04/10 12:05:56;;;;;;;9.50;2.60;;;19.30;99.90;;;;;;5067967;28;20189;-82
2022/04/10 12:08:28;;;;;;;6.60;2.28;;;19.20;99.90;;;;;;5062328;28;20185;-81
2022/04/10 12:10:59;;;;;;;7.18;2.60;;;19.20;99.90;;;;;;5064359;28;20216;-80
2022/04/10 12:13:34;;;;;;;7.20;2.30;;;19.20;99.90;;;;;;5065326;28;20196;-82
2022/04/10 12:16:13;;;;;;;8.13;2.60;;;19.20;99.90;;;;;;5065316;28;20192;-82
2022/04/10 12:18:52;;;;;;;8.02;2.10;;;19.20;99.90;;;;;;5060471;28;20188;-80
2022/04/10 12:21:24;;;;;;;6.38;2.40;;;19.20;99.90;;;;;;5067837;28;20188;-81
2022/04/10 12:24:02;;;;;;;5.32;2.58;;;19.20;99.90;;;;;;5069324;28;20185;-80
2022/04/10 12:26:35;;;;;;;8.13;2.33;;;19.20;99.90;;;;;;5059574;28;20189;-82
2022/04/10 12:29:06;;;;;;;8.15;2.55;;;19.10;99.90;;;;;;5066091;28;20581;-74
2022/04/10 12:31:37;;;;;;;6.05;2.13;;;19.10;99.90;;;;;;5069281;28;20213;-80
2022/04/10 12:34:11;;;;;;;7.53;2.40;;;19.10;99.90;;;;;;5070357;28;20217;-82
2022/04/10 12:36:49;;;;;;;6.78;2.35;;;19.10;99.90;;;;;;5065364;28;20192;-71
2022/04/10 12:39:30;;;;;;;5.68;2.30;;;19.10;99.90;;;;;;5060602;28;20193;-81
2022/04/10 12:42:07;;;;;;;7.10;2.20;;;19.10;99.90;;;;;;5062372;28;20553;-71
2022/04/10 12:44:38;;;;;;;9.55;3.03;;;19.10;99.90;;;;;;5064935;28;20216;-71
2022/04/10 12:47:10;;;;;;;10.65;2.65;;;19.10;99.90;;;;;;5061700;28;20278;-77
2022/04/10 12:49:42;;;;;;;8.75;2.40;;;19.10;99.90;;;;;;5067949;28;20687;-70
2022/04/10 12:52:20;;;;;;;8.80;2.70;;;19.10;99.90;;;;;;5070598;28;20193;-81
2022/04/10 12:54:50;;;;;;;7.47;2.35;;;19.10;99.90;;;;;;5070583;28;20225;-82
2022/04/10 12:57:29;;;;;;;6.57;2.40;;;19.00;99.90;;;;;;5071979;28;20189;-82
2022/04/10 13:00:00;;;;;;;7.82;2.42;;;19.00;99.90;;;;;;5072616;28;20188;-82
2022/04/10 13:02:31;;;;;;;6.38;2.33;;;19.10;99.90;;;;;;5062690;28;20259;-82
2022/04/10 13:05:05;;;;;;;8.27;2.55;;;19.00;99.90;;;;;;5063059;28;20186;-82
2022/04/10 13:07:36;;;;;;;6.72;2.33;;;19.00;99.90;;;;;;5059884;28;20201;-83
2022/04/10 13:10:10;;;;;;;12.07;2.70;;;19.00;99.90;;;;;;5061454;28;20221;-81
2022/04/10 13:12:41;;;;;;;6.47;2.58;;;19.00;99.90;;;;;;5065875;28;20186;-82